Time;durP1;ratioP1;P1;durP2;ratioP2;P2;SDS_P1;SDS_P2;PMS_P1;PMS_P2;Temp;Humidity;BMP_temperature;BMP_pressure;BME280_temperature;BME280_humidity;BME280_pressure;Samples;Min_cycle;Max_cycle;Signal;HPM_P1;HPM_P2
2023/03/06 00:00:35;;;;;;;4.10;2.40;;;;;;;;;;5031260;28;20462;-54
2023/03/06 00:03:01;;;;;;;3.67;2.00;;;;;;;;;;5031123;28;20472;-54
2023/03/06 00:05:27;;;;;;;3.60;2.27;;;;;;;;;;5031568;28;20448;-54
2023/03/06 00:07:53;;;;;;;3.90;2.33;;;;;;;;;;5031110;28;20527;-53
2023/03/06 00:10:21;;;;;;;2.50;2.10;;;;;;;;;;5031299;28;20452;-54
2023/03/06 00:12:47;;;;;;;5.23;2.57;;;;;;;;;;5031135;28;20929;-54
2023/03/06 00:15:14;;;;;;;3.13;2.13;;;;;;;;;;5031343;28;20534;-55
2023/03/06 00:17:40;;;;;;;3.50;2.23;;;;;;;;;;5031998;28;20439;-54
2023/03/06 00:20:07;;;;;;;4.60;2.10;;;;;;;;;;5037678;28;20439;-54
2023/03/06 00:22:33;;;;;;;3.53;2.20;;;;;;;;;;5037845;28;20443;-54
2023/03/06 00:24:59;;;;;;;6.67;2.40;;;;;;;;;;5037810;28;20435;-54
2023/03/06 00:27:26;;;;;;;5.10;2.17;;;;;;;;;;5037563;28;21020;-54
2023/03/06 00:29:56;;;;;;;3.63;2.20;;;;;;;;;;5037552;28;20585;-54
2023/03/06 00:32:22;;;;;;;4.00;2.30;;;;;;;;;;5037384;28;20451;-55
2023/03/06 00:34:49;;;;;;;4.43;2.03;;;;;;;;;;5037761;28;20440;-55
2023/03/06 00:37:15;;;;;;;2.43;2.10;;;;;;;;;;5037956;28;20435;-54
2023/03/06 00:39:41;;;;;;;5.00;2.17;;;;;;;;;;5037745;28;20513;-55
2023/03/06 00:42:07;;;;;;;4.67;2.40;;;;;;;;;;5037785;28;20431;-54
2023/03/06 00:44:34;;;;;;;4.03;2.57;;;;;;;;;;5037373;28;20205;-54
2023/03/06 00:47:00;;;;;;;3.50;2.27;;;;;;;;;;5037671;28;20925;-55
2023/03/06 00:49:26;;;;;;;5.57;2.90;;;;;;;;;;5037636;28;20483;-54
2023/03/06 00:51:52;;;;;;;5.27;2.30;;;;;;;;;;5037249;28;20204;-55
2023/03/06 00:54:18;;;;;;;5.03;2.90;;;;;;;;;;5035836;28;20201;-54
2023/03/06 00:56:44;;;;;;;4.63;2.53;;;;;;;;;;5036121;28;20297;-53
2023/03/06 00:59:10;;;;;;;4.57;2.40;;;;;;;;;;5037533;28;20196;-53
2023/03/06 01:01:38;;;;;;;4.87;2.30;;;;;;;;;;5037453;28;20224;-54
2023/03/06 01:04:04;;;;;;;3.63;2.10;;;;;;;;;;5037277;28;20545;-54
2023/03/06 01:06:30;;;;;;;2.73;2.17;;;;;;;;;;5037500;28;20435;-54
2023/03/06 01:08:56;;;;;;;4.67;2.30;;;;;;;;;;5037333;28;20505;-54
2023/03/06 01:11:22;;;;;;;3.67;2.37;;;;;;;;;;5037448;28;20447;-55
2023/03/06 01:13:48;;;;;;;3.60;2.37;;;;;;;;;;5037013;28;20454;-53
2023/03/06 01:16:15;;;;;;;4.97;2.20;;;;;;;;;;5037223;28;20462;-53
2023/03/06 01:18:42;;;;;;;3.90;2.10;;;;;;;;;;5037132;28;20526;-53
2023/03/06 01:21:08;;;;;;;3.13;2.37;;;;;;;;;;5037339;28;20439;-54
2023/03/06 01:23:34;;;;;;;8.50;3.73;;;;;;;;;;5037583;28;20441;-54
2023/03/06 01:26:00;;;;;;;5.23;2.83;;;;;;;;;;5037166;28;20204;-54
2023/03/06 01:28:27;;;;;;;5.53;2.73;;;;;;;;;;5037104;28;20229;-53
2023/03/06 01:30:53;;;;;;;4.43;2.03;;;;;;;;;;5033079;28;20435;-53
2023/03/06 01:33:19;;;;;;;4.63;2.37;;;;;;;;;;5033628;28;20444;-54
2023/03/06 01:35:47;;;;;;;7.70;2.47;;;;;;;;;;5033306;28;20427;-53
2023/03/06 01:38:13;;;;;;;2.63;2.00;;;;;;;;;;5033800;28;20440;-53
2023/03/06 01:40:39;;;;;;;5.67;2.70;;;;;;;;;;5033322;28;20489;-53
2023/03/06 01:43:11;;;;;;;3.27;2.23;;;;;;;;;;5033364;28;21043;-53
2023/03/06 01:45:59;;;;;;;5.87;2.23;;;;;;;;;;5033110;28;20440;-53
2023/03/06 01:48:25;;;;;;;5.33;2.50;;;;;;;;;;5033059;28;20459;-54
2023/03/06 01:50:53;;;;;;;4.43;2.30;;;;;;;;;;5032866;28;20848;-54
2023/03/06 01:53:20;;;;;;;3.80;2.47;;;;;;;;;;5032920;28;20448;-54
2023/03/06 01:55:46;;;;;;;4.47;2.23;;;;;;;;;;5032839;28;20559;-54
2023/03/06 01:58:15;;;;;;;3.40;2.17;;;;;;;;;;5032999;28;20457;-54
2023/03/06 02:00:41;;;;;;;2.43;2.07;;;;;;;;;;5032803;28;20463;-54
2023/03/06 02:03:09;;;;;;;3.77;2.30;;;;;;;;;;5032671;28;20489;-54
2023/03/06 02:05:35;;;;;;;3.20;2.20;;;;;;;;;;5032706;28;20808;-54
2023/03/06 02:08:03;;;;;;;2.77;2.50;;;;;;;;;;5032527;28;20455;-57
2023/03/06 02:10:29;;;;;;;4.13;2.43;;;;;;;;;;5031544;28;20525;-53
2023/03/06 02:12:55;;;;;;;3.97;2.33;;;;;;;;;;5033388;28;20451;-53
2023/03/06 02:15:23;;;;;;;4.87;2.50;;;;;;;;;;5033390;28;20518;-53
2023/03/06 02:17:50;;;;;;;4.03;2.50;;;;;;;;;;5033301;28;20439;-54
2023/03/06 02:20:18;;;;;;;3.33;2.23;;;;;;;;;;5033449;28;20435;-54
2023/03/06 02:22:47;;;;;;;7.30;2.00;;;;;;;;;;5033224;28;20945;-54
2023/03/06 02:25:20;;;;;;;5.50;2.87;;;;;;;;;;5033289;28;20864;-54
2023/03/06 02:27:47;;;;;;;2.97;2.20;;;;;;;;;;5033039;28;20466;-52
2023/03/06 02:30:14;;;;;;;4.23;2.37;;;;;;;;;;5033170;28;20485;-52
2023/03/06 02:32:40;;;;;;;6.03;2.20;;;;;;;;;;5033178;28;20450;-54
2023/03/06 02:35:07;;;;;;;3.97;2.10;;;;;;;;;;5032949;28;20435;-53
2023/03/06 02:37:33;;;;;;;4.97;2.40;;;;;;;;;;5032924;28;20619;-54
2023/03/06 02:40:07;;;;;;;3.97;2.30;;;;;;;;;;5033048;28;20431;-53
2023/03/06 02:42:35;;;;;;;5.73;2.53;;;;;;;;;;5032751;28;20196;-53
2023/03/06 02:45:02;;;;;;;4.17;2.20;;;;;;;;;;5033092;28;21018;-54
2023/03/06 02:47:28;;;;;;;2.93;2.10;;;;;;;;;;5032879;28;20968;-53
2023/03/06 02:49:54;;;;;;;3.10;2.80;;;;;;;;;;5033041;28;20475;-53
2023/03/06 02:52:20;;;;;;;3.90;3.50;;;;;;;;;;5032746;28;20446;-51
2023/03/06 02:54:46;;;;;;;4.33;3.87;;;;;;;;;;5032592;28;20431;-53
2023/03/06 02:57:12;;;;;;;4.70;3.97;;;;;;;;;;5032754;28;20538;-53
2023/03/06 02:59:39;;;;;;;3.83;3.53;;;;;;;;;;5032659;28;20193;-54
2023/03/06 03:02:05;;;;;;;4.73;4.13;;;;;;;;;;5032371;28;20224;-52
2023/03/06 03:04:31;;;;;;;3.97;3.57;;;;;;;;;;5032382;28;20507;-53
2023/03/06 03:10:01;;;;;;;3.90;3.60;;;;;;;;;;5032080;28;20262;-53
2023/03/06 03:12:27;;;;;;;3.90;3.50;;;;;;;;;;5032369;28;20444;-52
2023/03/06 03:14:55;;;;;;;3.90;3.50;;;;;;;;;;5032321;28;20451;-52
2023/03/06 03:17:21;;;;;;;3.40;3.00;;;;;;;;;;5032101;28;20440;-53
2023/03/06 03:19:47;;;;;;;3.50;3.20;;;;;;;;;;5032152;28;20432;-52
2023/03/06 03:22:13;;;;;;;2.70;2.50;;;;;;;;;;5032119;28;20439;-51
2023/03/06 03:24:39;;;;;;;2.20;2.03;;;;;;;;;;5032189;28;20447;-51
2023/03/06 03:27:05;;;;;;;1.83;1.73;;;;;;;;;;5031962;28;20207;-51
2023/03/06 03:29:31;;;;;;;2.17;1.97;;;;;;;;;;5031932;28;20487;-52
2023/03/06 03:31:58;;;;;;;2.10;1.80;;;;;;;;;;5032122;28;20450;-52
2023/03/06 03:34:24;;;;;;;1.83;1.73;;;;;;;;;;5031903;28;20436;-52
2023/03/06 03:36:50;;;;;;;1.57;1.47;;;;;;;;;;5031840;28;20457;-52
2023/03/06 03:39:16;;;;;;;1.60;1.50;;;;;;;;;;5031882;28;20197;-52
2023/03/06 03:41:42;;;;;;;1.63;1.53;;;;;;;;;;5031956;28;20444;-52
2023/03/06 03:44:08;;;;;;;1.57;1.47;;;;;;;;;;5031589;28;20450;-51
2023/03/06 03:46:34;;;;;;;1.70;1.60;;;;;;;;;;5031779;28;20197;-51
2023/03/06 03:49:02;;;;;;;1.40;1.30;;;;;;;;;;5031538;28;20467;-50
2023/03/06 03:51:28;;;;;;;1.70;1.60;;;;;;;;;;5031793;28;20299;-50
2023/03/06 03:53:55;;;;;;;1.43;1.37;;;;;;;;;;5031270;28;20475;-53
2023/03/06 03:56:21;;;;;;;1.77;1.67;;;;;;;;;;5031670;28;20196;-49
2023/03/06 03:58:47;;;;;;;1.80;1.70;;;;;;;;;;5031484;28;20444;-51
2023/03/06 04:01:13;;;;;;;1.77;1.67;;;;;;;;;;5031476;28;20252;-51
2023/03/06 04:03:39;;;;;;;2.00;1.80;;;;;;;;;;5031485;28;20637;-51
2023/03/06 04:06:07;;;;;;;1.80;1.70;;;;;;;;;;5031195;28;20446;-51
2023/03/06 04:08:33;;;;;;;1.70;1.60;;;;;;;;;;5031104;28;20229;-51
2023/03/06 04:10:59;;;;;;;1.40;1.30;;;;;;;;;;5031491;28;20431;-51
2023/03/06 04:13:25;;;;;;;1.83;1.73;;;;;;;;;;5031484;28;20259;-51
2023/03/06 04:15:51;;;;;;;1.70;1.60;;;;;;;;;;5031616;28;20203;-51
2023/03/06 04:18:17;;;;;;;1.40;1.30;;;;;;;;;;5031697;28;20655;-51
2023/03/06 04:20:45;;;;;;;1.60;1.50;;;;;;;;;;5031687;28;20442;-51
2023/03/06 04:23:13;;;;;;;1.60;1.50;;;;;;;;;;5031474;28;20296;-51
2023/03/06 04:25:39;;;;;;;1.70;1.60;;;;;;;;;;5031658;28;20450;-51
2023/03/06 04:28:05;;;;;;;1.50;1.40;;;;;;;;;;5031472;28;20432;-51
2023/03/06 04:30:31;;;;;;;1.43;1.33;;;;;;;;;;5031172;28;20566;-52
2023/03/06 04:32:57;;;;;;;1.50;1.40;;;;;;;;;;5031450;28;20448;-51
2023/03/06 04:35:23;;;;;;;1.50;1.40;;;;;;;;;;5031230;28;21159;-52
2023/03/06 04:37:49;;;;;;;1.40;1.30;;;;;;;;;;5031185;28;20201;-50
2023/03/06 04:40:18;;;;;;;1.33;1.23;;;;;;;;;;5031093;28;20440;-52
2023/03/06 04:42:44;;;;;;;1.50;1.40;;;;;;;;;;5031469;28;20476;-51
2023/03/06 04:45:10;;;;;;;1.70;1.60;;;;;;;;;;5031433;28;20440;-51
2023/03/06 04:47:36;;;;;;;1.70;1.60;;;;;;;;;;5031416;28;20439;-52
2023/03/06 04:50:02;;;;;;;1.50;1.40;;;;;;;;;;5031148;28;20483;-51
2023/03/06 04:52:28;;;;;;;1.70;1.60;;;;;;;;;;5031301;28;20197;-51
2023/03/06 04:54:54;;;;;;;2.03;1.63;;;;;;;;;;5031360;28;20530;-50
2023/03/06 04:57:22;;;;;;;1.50;1.40;;;;;;;;;;5031017;28;20980;-50
2023/03/06 04:59:49;;;;;;;2.43;1.43;;;;;;;;;;5031011;28;20201;-50
2023/03/06 05:02:15;;;;;;;1.77;1.67;;;;;;;;;;5030945;28;20447;-51
2023/03/06 05:04:41;;;;;;;1.93;1.53;;;;;;;;;;5031116;28;20478;-50
2023/03/06 05:07:07;;;;;;;2.03;1.70;;;;;;;;;;5034504;28;20201;-51
2023/03/06 05:09:33;;;;;;;1.93;1.30;;;;;;;;;;5034613;28;20221;-50
2023/03/06 05:11:59;;;;;;;2.37;1.43;;;;;;;;;;5034606;28;20431;-51
2023/03/06 05:14:28;;;;;;;1.60;1.40;;;;;;;;;;5034529;28;20436;-50
2023/03/06 05:16:54;;;;;;;1.97;1.30;;;;;;;;;;5034446;28;21016;-51
2023/03/06 05:19:20;;;;;;;1.67;1.57;;;;;;;;;;5034346;28;20956;-50
2023/03/06 05:21:46;;;;;;;2.20;1.60;;;;;;;;;;5034620;28;20419;-50
2023/03/06 05:24:12;;;;;;;2.13;1.50;;;;;;;;;;5034335;28;20201;-50
2023/03/06 05:26:38;;;;;;;1.97;1.50;;;;;;;;;;5034390;28;20271;-50
2023/03/06 05:29:04;;;;;;;1.50;1.40;;;;;;;;;;5034312;28;20637;-50
2023/03/06 05:31:31;;;;;;;2.67;1.70;;;;;;;;;;5034169;28;21062;-51
2023/03/06 05:33:57;;;;;;;1.70;1.60;;;;;;;;;;5034290;28;20215;-51
2023/03/06 05:36:23;;;;;;;1.80;1.70;;;;;;;;;;5034066;28;20447;-51
2023/03/06 05:38:49;;;;;;;1.63;1.40;;;;;;;;;;5034078;28;20530;-51
2023/03/06 05:41:15;;;;;;;1.50;1.40;;;;;;;;;;5033909;28;20466;-51
2023/03/06 05:43:41;;;;;;;1.60;1.50;;;;;;;;;;5034059;28;20193;-51
2023/03/06 05:46:08;;;;;;;1.53;1.43;;;;;;;;;;5034116;28;20882;-51
2023/03/06 05:48:36;;;;;;;1.47;1.37;;;;;;;;;;5033723;28;20965;-50
2023/03/06 05:51:02;;;;;;;2.30;1.50;;;;;;;;;;5033768;28;20804;-51
2023/03/06 05:53:29;;;;;;;1.77;1.53;;;;;;;;;;5033936;28;20432;-51
2023/03/06 05:55:55;;;;;;;1.67;1.57;;;;;;;;;;5033935;28;20436;-52
2023/03/06 05:58:21;;;;;;;2.37;1.40;;;;;;;;;;5033549;28;20481;-49
2023/03/06 06:00:47;;;;;;;1.63;1.50;;;;;;;;;;5033565;28;20463;-51
2023/03/06 06:03:13;;;;;;;1.47;1.37;;;;;;;;;;5033463;28;20580;-52
2023/03/06 06:05:41;;;;;;;2.47;1.37;;;;;;;;;;5033742;28;20204;-51
2023/03/06 06:08:07;;;;;;;1.70;1.50;;;;;;;;;;5033342;28;20209;-50
2023/03/06 06:10:33;;;;;;;1.50;1.40;;;;;;;;;;5033376;28;20701;-50
2023/03/06 06:12:59;;;;;;;2.77;1.67;;;;;;;;;;5033483;28;20193;-50
2023/03/06 06:15:27;;;;;;;1.50;1.40;;;;;;;;;;5032969;28;20287;-50
2023/03/06 06:17:53;;;;;;;1.80;1.40;;;;;;;;;;5032819;28;20211;-50
2023/03/06 06:20:19;;;;;;;1.40;1.30;;;;;;;;;;5033109;28;20435;-50
2023/03/06 06:22:47;;;;;;;1.43;1.33;;;;;;;;;;5032728;28;20200;-52
2023/03/06 06:25:13;;;;;;;1.40;1.30;;;;;;;;;;5033273;28;20451;-52
2023/03/06 06:27:39;;;;;;;1.47;1.30;;;;;;;;;;5033351;28;20435;-51
2023/03/06 06:30:06;;;;;;;1.53;1.40;;;;;;;;;;5032650;28;20488;-52
2023/03/06 06:32:32;;;;;;;1.30;1.30;;;;;;;;;;5032956;28;20336;-51
2023/03/06 06:34:58;;;;;;;1.40;1.30;;;;;;;;;;5032981;28;21008;-50
2023/03/06 06:37:24;;;;;;;1.30;1.20;;;;;;;;;;5033036;28;20185;-52
2023/03/06 06:39:52;;;;;;;1.40;1.30;;;;;;;;;;5032842;28;20197;-52
2023/03/06 06:42:18;;;;;;;1.50;1.40;;;;;;;;;;5032737;28;20436;-52
2023/03/06 06:44:44;;;;;;;1.40;1.30;;;;;;;;;;5032962;28;20857;-50
2023/03/06 06:47:10;;;;;;;1.40;1.30;;;;;;;;;;5032964;28;20288;-50
2023/03/06 06:49:36;;;;;;;1.40;1.30;;;;;;;;;;5032698;28;20571;-51
2023/03/06 06:52:03;;;;;;;2.70;1.20;;;;;;;;;;5032652;28;20439;-51
2023/03/06 06:54:29;;;;;;;1.60;1.50;;;;;;;;;;5032633;28;20440;-51
2023/03/06 06:56:56;;;;;;;1.70;1.60;;;;;;;;;;5032983;28;20490;-51
2023/03/06 06:59:22;;;;;;;1.53;1.43;;;;;;;;;;5032403;28;20625;-51
2023/03/06 07:01:48;;;;;;;1.70;1.60;;;;;;;;;;5032472;28;20475;-52
2023/03/06 07:04:15;;;;;;;1.30;1.23;;;;;;;;;;5032282;28;20515;-52
2023/03/06 07:06:41;;;;;;;2.13;1.47;;;;;;;;;;5032688;28;20447;-51
2023/03/06 07:09:07;;;;;;;1.70;1.43;;;;;;;;;;5032392;28;20479;-52
2023/03/06 07:11:33;;;;;;;1.50;1.40;;;;;;;;;;5032172;28;20446;-51
2023/03/06 07:14:00;;;;;;;3.60;1.63;;;;;;;;;;5032279;28;20255;-52
2023/03/06 07:16:26;;;;;;;1.77;1.30;;;;;;;;;;5032250;28;20522;-51
2023/03/06 07:18:52;;;;;;;1.50;1.40;;;;;;;;;;5032197;28;20523;-51
2023/03/06 07:21:18;;;;;;;1.47;1.37;;;;;;;;;;5031987;28;20201;-51
2023/03/06 07:23:45;;;;;;;1.80;1.43;;;;;;;;;;5032057;28;20193;-51
2023/03/06 07:26:11;;;;;;;1.77;1.67;;;;;;;;;;5032016;28;20439;-51
2023/03/06 07:28:37;;;;;;;2.47;1.80;;;;;;;;;;5031398;28;20447;-51
2023/03/06 07:31:08;;;;;;;1.83;1.60;;;;;;;;;;5031805;28;20239;-52
2023/03/06 07:33:34;;;;;;;1.50;1.40;;;;;;;;;;5031722;28;20207;-52
2023/03/06 07:36:00;;;;;;;3.07;2.17;;;;;;;;;;5031827;28;20452;-52
2023/03/06 07:38:26;;;;;;;2.03;1.80;;;;;;;;;;5024573;28;20439;-53
2023/03/06 07:40:52;;;;;;;2.00;1.80;;;;;;;;;;5031877;28;20223;-52
2023/03/06 07:43:18;;;;;;;2.87;1.87;;;;;;;;;;5031390;28;20946;-53
2023/03/06 07:45:45;;;;;;;3.00;2.33;;;;;;;;;;5031418;28;20200;-55
2023/03/06 07:48:13;;;;;;;2.80;2.23;;;;;;;;;;5031448;28;20443;-53
2023/03/06 07:50:40;;;;;;;2.30;2.10;;;;;;;;;;5030926;28;20926;-55
2023/03/06 07:53:06;;;;;;;3.23;2.33;;;;;;;;;;5031307;28;20424;-54
2023/03/06 07:55:32;;;;;;;3.30;2.30;;;;;;;;;;5029414;28;20435;-52
2023/03/06 07:57:58;;;;;;;4.40;3.50;;;;;;;;;;5029750;28;20439;-55
2023/03/06 08:00:24;;;;;;;2.80;2.50;;;;;;;;;;5031143;28;20904;-52
2023/03/06 08:02:50;;;;;;;1.83;1.73;;;;;;;;;;5031259;28;20289;-54
2023/03/06 08:05:18;;;;;;;3.43;2.10;;;;;;;;;;5031210;28;20439;-53
2023/03/06 08:07:44;;;;;;;2.20;2.00;;;;;;;;;;5031383;28;20209;-51
2023/03/06 08:10:12;;;;;;;2.00;1.60;;;;;;;;;;5031017;28;21062;-51
2023/03/06 08:12:38;;;;;;;1.70;1.60;;;;;;;;;;5031116;28;20896;-51
2023/03/06 08:15:05;;;;;;;1.60;1.50;;;;;;;;;;5030958;28;20436;-52
2023/03/06 08:17:31;;;;;;;2.57;1.50;;;;;;;;;;5030965;28;20600;-53
2023/03/06 08:19:57;;;;;;;2.03;1.70;;;;;;;;;;5031087;28;20530;-52
2023/03/06 08:22:24;;;;;;;2.07;1.63;;;;;;;;;;5030918;28;20369;-52
2023/03/06 08:24:53;;;;;;;2.10;1.80;;;;;;;;;;5031129;28;20439;-52
2023/03/06 08:27:19;;;;;;;2.70;2.20;;;;;;;;;;5030980;28;20435;-50
2023/03/06 08:29:45;;;;;;;2.77;2.30;;;;;;;;;;5030892;28;20887;-50
2023/03/06 08:32:11;;;;;;;2.10;1.90;;;;;;;;;;5031102;28;20277;-51
2023/03/06 08:34:39;;;;;;;1.83;1.73;;;;;;;;;;5030872;28;20200;-51
2023/03/06 08:37:05;;;;;;;2.10;1.90;;;;;;;;;;5031443;28;20451;-50
2023/03/06 08:39:33;;;;;;;1.80;1.70;;;;;;;;;;5032643;28;20435;-50
2023/03/06 08:41:59;;;;;;;1.70;1.60;;;;;;;;;;5035311;28;20209;-50
2023/03/06 08:44:25;;;;;;;2.03;1.63;;;;;;;;;;5034982;28;20542;-50
2023/03/06 08:46:51;;;;;;;1.60;1.50;;;;;;;;;;5035113;28;20573;-50
2023/03/06 08:49:17;;;;;;;2.27;1.60;;;;;;;;;;5034865;28;20229;-51
2023/03/06 08:51:43;;;;;;;2.47;1.87;;;;;;;;;;5035143;28;20205;-50
2023/03/06 08:54:10;;;;;;;1.40;1.30;;;;;;;;;;5035061;28;20270;-50
2023/03/06 08:56:37;;;;;;;1.87;1.20;;;;;;;;;;5035015;28;20455;-51
2023/03/06 08:59:04;;;;;;;1.60;1.50;;;;;;;;;;5034926;28;20451;-51
2023/03/06 09:01:31;;;;;;;1.80;1.70;;;;;;;;;;5034443;28;20467;-50
2023/03/06 09:03:58;;;;;;;2.57;1.70;;;;;;;;;;5034630;28;20483;-50
2023/03/06 09:06:25;;;;;;;1.83;1.73;;;;;;;;;;5034799;28;20471;-50
2023/03/06 09:08:51;;;;;;;2.47;2.10;;;;;;;;;;5034842;28;20435;-49
2023/03/06 09:11:17;;;;;;;2.30;2.10;;;;;;;;;;5034518;28;20490;-49
2023/03/06 09:13:44;;;;;;;2.33;2.10;;;;;;;;;;5034663;28;20228;-49
2023/03/06 09:16:11;;;;;;;3.10;2.30;;;;;;;;;;5034750;28;20443;-51
2023/03/06 09:18:37;;;;;;;2.10;1.80;;;;;;;;;;5034610;28;20448;-49
2023/03/06 09:21:03;;;;;;;2.07;1.97;;;;;;;;;;5034410;28;20439;-49
2023/03/06 09:23:29;;;;;;;2.87;1.73;;;;;;;;;;5034608;28;20583;-49
2023/03/06 09:25:56;;;;;;;3.33;2.30;;;;;;;;;;5034819;28;20471;-49
2023/03/06 09:28:22;;;;;;;2.70;1.80;;;;;;;;;;5034365;28;20435;-49
2023/03/06 09:30:50;;;;;;;2.30;2.10;;;;;;;;;;5034355;28;20477;-49
2023/03/06 09:33:17;;;;;;;1.80;1.70;;;;;;;;;;5034039;28;20456;-49
2023/03/06 09:35:47;;;;;;;2.73;1.80;;;;;;;;;;5034303;28;20440;-50
2023/03/06 09:38:13;;;;;;;1.83;1.73;;;;;;;;;;5033978;28;20513;-50
2023/03/06 09:40:45;;;;;;;1.77;1.67;;;;;;;;;;5034088;28;20929;-50
2023/03/06 09:43:17;;;;;;;2.07;1.77;;;;;;;;;;5034201;28;20299;-50
2023/03/06 09:45:44;;;;;;;2.23;2.00;;;;;;;;;;5034275;28;20991;-50
2023/03/06 09:48:13;;;;;;;2.13;1.90;;;;;;;;;;5034155;28;20435;-49
2023/03/06 09:50:42;;;;;;;1.90;1.70;;;;;;;;;;5033327;28;20915;-49
2023/03/06 09:53:16;;;;;;;2.43;1.60;;;;;;;;;;5034371;28;20432;-49
2023/03/06 09:55:45;;;;;;;1.60;1.50;;;;;;;;;;5034308;28;21025;-48
2023/03/06 09:58:14;;;;;;;1.80;1.67;;;;;;;;;;5034187;28;20436;-49
2023/03/06 10:00:43;;;;;;;2.37;1.70;;;;;;;;;;5034332;28;20452;-49
2023/03/06 10:03:19;;;;;;;1.70;1.60;;;;;;;;;;5033850;28;20480;-49
2023/03/06 10:05:47;;;;;;;1.77;1.47;;;;;;;;;;5034123;28;20442;-49
2023/03/06 10:08:19;;;;;;;2.40;1.90;;;;;;;;;;5033874;28;20930;-49
2023/03/06 10:10:48;;;;;;;1.77;1.67;;;;;;;;;;5033838;28;21016;-50
2023/03/06 10:13:17;;;;;;;1.70;1.60;;;;;;;;;;5033870;28;20431;-50
2023/03/06 10:15:44;;;;;;;2.53;2.17;;;;;;;;;;5034012;28;20440;-48
2023/03/06 10:18:11;;;;;;;3.03;1.63;;;;;;;;;;5033796;28;20432;-50
2023/03/06 10:20:47;;;;;;;2.67;1.70;;;;;;;;;;5033542;28;20197;-50
2023/03/06 10:23:24;;;;;;;1.97;1.73;;;;;;;;;;5033741;28;20201;-48
2023/03/06 10:25:54;;;;;;;2.20;2.00;;;;;;;;;;5033644;28;20279;-48
2023/03/06 10:28:22;;;;;;;2.50;2.30;;;;;;;;;;5033474;28;20734;-48
2023/03/06 10:30:51;;;;;;;2.93;2.60;;;;;;;;;;5033422;28;20225;-49
2023/03/06 10:33:21;;;;;;;3.10;2.87;;;;;;;;;;5033529;28;20224;-49
2023/03/06 10:35:49;;;;;;;4.70;4.20;;;;;;;;;;5033446;28;20667;-48
2023/03/06 10:38:18;;;;;;;4.93;4.30;;;;;;;;;;5033079;28;20563;-48
2023/03/06 10:40:47;;;;;;;5.00;4.50;;;;;;;;;;5033218;28;20655;-48
2023/03/06 10:43:13;;;;;;;4.03;3.53;;;;;;;;;;5033162;28;20291;-48
2023/03/06 10:45:48;;;;;;;3.50;3.20;;;;;;;;;;5033281;28;20610;-49
2023/03/06 10:48:17;;;;;;;3.37;3.07;;;;;;;;;;5033034;28;20201;-49
2023/03/06 10:50:43;;;;;;;3.53;3.10;;;;;;;;;;5033159;28;20228;-49
2023/03/06 10:53:18;;;;;;;3.00;2.60;;;;;;;;;;5032843;28;20204;-49
2023/03/06 10:55:50;;;;;;;2.80;2.50;;;;;;;;;;5033497;28;20204;-49
2023/03/06 10:58:17;;;;;;;3.63;2.23;;;;;;;;;;5032717;28;20201;-48
2023/03/06 11:00:43;;;;;;;2.57;1.90;;;;;;;;;;5033013;28;20709;-48
2023/03/06 11:03:21;;;;;;;2.37;2.17;;;;;;;;;;5032534;28;20236;-49
2023/03/06 11:05:55;;;;;;;2.27;2.07;;;;;;;;;;5032806;28;20623;-48
2023/03/06 11:08:22;;;;;;;2.33;2.10;;;;;;;;;;5032718;28;20308;-47
2023/03/06 11:10:54;;;;;;;2.03;1.80;;;;;;;;;;5032587;28;20225;-49
2023/03/06 11:13:21;;;;;;;2.20;2.00;;;;;;;;;;5032445;28;20287;-49
2023/03/06 11:15:54;;;;;;;2.90;1.77;;;;;;;;;;5032919;28;20207;-49
2023/03/06 11:18:27;;;;;;;3.70;2.10;;;;;;;;;;5032490;28;20189;-49
2023/03/06 11:20:54;;;;;;;3.63;1.70;;;;;;;;;;5032369;28;20568;-49
2023/03/06 11:23:24;;;;;;;2.40;2.20;;;;;;;;;;5032434;28;20193;-50
2023/03/06 11:25:55;;;;;;;3.00;2.40;;;;;;;;;;5032378;28;20498;-51
2023/03/06 11:28:23;;;;;;;2.77;2.37;;;;;;;;;;5032347;28;20208;-50
2023/03/06 11:30:51;;;;;;;2.10;1.90;;;;;;;;;;5031979;28;20698;-50
2023/03/06 11:33:21;;;;;;;2.20;2.00;;;;;;;;;;5032112;28;20197;-49
2023/03/06 11:35:53;;;;;;;1.90;1.70;;;;;;;;;;5032133;28;20196;-49
2023/03/06 11:38:21;;;;;;;1.90;1.80;;;;;;;;;;5031855;28;20197;-49
2023/03/06 11:40:51;;;;;;;2.80;1.70;;;;;;;;;;5032055;28;20280;-49
2023/03/06 11:43:22;;;;;;;3.37;1.87;;;;;;;;;;5031697;28;20235;-49
2023/03/06 11:45:51;;;;;;;1.83;1.60;;;;;;;;;;5031933;28;20234;-49
2023/03/06 11:48:22;;;;;;;1.87;1.50;;;;;;;;;;5031471;28;20204;-48
2023/03/06 11:50:50;;;;;;;2.53;1.40;;;;;;;;;;5031843;28;20232;-50
2023/03/06 11:53:16;;;;;;;4.93;1.40;;;;;;;;;;5031700;28;20203;-49
2023/03/06 11:55:46;;;;;;;2.70;1.67;;;;;;;;;;5031897;28;20204;-51
2023/03/06 11:58:19;;;;;;;3.50;1.70;;;;;;;;;;5031566;28;20677;-51
2023/03/06 12:00:50;;;;;;;1.80;1.70;;;;;;;;;;5031353;28;20717;-50
2023/03/06 12:03:30;;;;;;;2.43;1.80;;;;;;;;;;5031401;28;20324;-52
2023/03/06 12:06:00;;;;;;;2.73;1.47;;;;;;;;;;5031753;28;20196;-51
2023/03/06 12:08:33;;;;;;;2.80;2.03;;;;;;;;;;5031688;28;20193;-51
2023/03/06 12:11:03;;;;;;;2.33;2.00;;;;;;;;;;5031679;28;20259;-52
2023/03/06 12:13:37;;;;;;;3.30;2.70;;;;;;;;;;5031125;28;20660;-52
2023/03/06 12:16:21;;;;;;;4.57;2.80;;;;;;;;;;5031524;28;20683;-52
2023/03/06 12:18:52;;;;;;;3.23;2.93;;;;;;;;;;5031330;28;20752;-51
2023/03/06 12:21:23;;;;;;;4.37;3.33;;;;;;;;;;5031333;28;20207;-50
2023/03/06 12:23:54;;;;;;;3.30;3.00;;;;;;;;;;5031562;28;20201;-49
2023/03/06 12:26:32;;;;;;;2.60;2.30;;;;;;;;;;5031526;28;20193;-50
2023/03/06 12:29:05;;;;;;;3.47;2.80;;;;;;;;;;5031471;28;20658;-49
2023/03/06 12:31:39;;;;;;;2.70;2.07;;;;;;;;;;5031435;28;20209;-49
2023/03/06 12:34:13;;;;;;;3.07;2.17;;;;;;;;;;5031555;28;20246;-48
2023/03/06 12:36:45;;;;;;;3.00;2.30;;;;;;;;;;5031502;28;20647;-50
2023/03/06 12:39:16;;;;;;;3.87;2.60;;;;;;;;;;5031759;28;20280;-49
2023/03/06 12:41:47;;;;;;;2.43;2.20;;;;;;;;;;5031494;28;20266;-50
2023/03/06 12:44:18;;;;;;;3.10;2.00;;;;;;;;;;5031854;28;20243;-52
2023/03/06 12:46:46;;;;;;;2.57;2.37;;;;;;;;;;5031663;28;20205;-50
2023/03/06 12:49:16;;;;;;;2.30;2.10;;;;;;;;;;5031503;28;20217;-51
2023/03/06 12:51:43;;;;;;;3.27;2.40;;;;;;;;;;5031507;28;20287;-50
2023/03/06 12:54:10;;;;;;;3.83;2.40;;;;;;;;;;5031372;28;20200;-50
2023/03/06 12:56:38;;;;;;;2.33;2.07;;;;;;;;;;5031184;28;20778;-49
2023/03/06 12:59:04;;;;;;;2.83;1.93;;;;;;;;;;5031419;28;20205;-50
2023/03/06 13:01:40;;;;;;;2.80;2.50;;;;;;;;;;5031021;28;20256;-50
2023/03/06 13:04:22;;;;;;;2.80;2.23;;;;;;;;;;5031017;28;20294;-50
2023/03/06 13:06:59;;;;;;;2.53;2.30;;;;;;;;;;5031502;28;20205;-51
2023/03/06 13:09:29;;;;;;;2.67;2.40;;;;;;;;;;5031009;28;20693;-50
2023/03/06 13:12:03;;;;;;;3.13;2.37;;;;;;;;;;5031165;28;20204;-51
2023/03/06 13:14:48;;;;;;;2.50;2.30;;;;;;;;;;5031192;28;20236;-50
2023/03/06 13:17:41;;;;;;;2.63;2.40;;;;;;;;;;5031166;28;20310;-50
2023/03/06 13:20:26;;;;;;;2.17;1.97;;;;;;;;;;4995305;28;20283;-52
2023/03/06 13:22:52;;;;;;;3.60;2.30;;;;;;;;;;5031045;28;20205;-50
2023/03/06 13:25:34;;;;;;;2.50;2.30;;;;;;;;;;5030843;28;20205;-50
2023/03/06 13:28:02;;;;;;;3.30;2.40;;;;;;;;;;5034548;28;20196;-50
2023/03/06 13:30:41;;;;;;;4.10;2.30;;;;;;;;;;5023988;28;20220;-50
2023/03/06 13:33:22;;;;;;;3.10;2.00;;;;;;;;;;5034403;28;20204;-50
2023/03/06 13:35:52;;;;;;;2.80;2.07;;;;;;;;;;5033630;28;20238;-50
2023/03/06 13:38:32;;;;;;;2.53;2.00;;;;;;;;;;5033740;28;20201;-52
2023/03/06 13:41:12;;;;;;;3.23;2.00;;;;;;;;;;5034168;28;20573;-52
2023/03/06 13:43:40;;;;;;;2.47;1.90;;;;;;;;;;5031498;28;20560;-53
2023/03/06 13:46:14;;;;;;;2.73;2.10;;;;;;;;;;5032736;28;20284;-50
2023/03/06 13:48:40;;;;;;;2.80;2.10;;;;;;;;;;5034320;28;20193;-50
2023/03/06 13:51:22;;;;;;;3.90;2.33;;;;;;;;;;5034033;28;20252;-53
2023/03/06 13:54:07;;;;;;;3.73;2.27;;;;;;;;;;5034364;28;20208;-50
2023/03/06 13:56:45;;;;;;;2.33;2.13;;;;;;;;;;5033999;28;20211;-51
2023/03/06 13:59:24;;;;;;;2.43;2.20;;;;;;;;;;5034132;28;20197;-50
2023/03/06 14:01:56;;;;;;;2.30;2.10;;;;;;;;;;5034010;28;20311;-49
2023/03/06 14:04:33;;;;;;;2.80;2.20;;;;;;;;;;5033836;28;20271;-51
2023/03/06 14:07:10;;;;;;;3.27;2.07;;;;;;;;;;5034035;28;20205;-50
2023/03/06 14:09:38;;;;;;;2.50;2.30;;;;;;;;;;5033843;28;20267;-52
2023/03/06 14:12:05;;;;;;;4.27;2.70;;;;;;;;;;5033809;28;20843;-50
2023/03/06 14:14:34;;;;;;;4.40;2.50;;;;;;;;;;5033739;28;20280;-51
2023/03/06 14:17:01;;;;;;;3.00;2.00;;;;;;;;;;5033959;28;20201;-52
2023/03/06 14:19:30;;;;;;;2.77;2.23;;;;;;;;;;5033715;28;20200;-50
2023/03/06 14:21:57;;;;;;;2.23;2.00;;;;;;;;;;5033908;28;20247;-51
2023/03/06 14:24:29;;;;;;;2.13;1.93;;;;;;;;;;5033675;28;20267;-52
2023/03/06 14:26:55;;;;;;;4.63;2.10;;;;;;;;;;5031674;28;20192;-50
2023/03/06 14:29:22;;;;;;;4.40;2.20;;;;;;;;;;5033233;28;20725;-50
2023/03/06 14:31:49;;;;;;;2.40;2.20;;;;;;;;;;5032841;28;20327;-50
2023/03/06 14:34:17;;;;;;;2.70;2.03;;;;;;;;;;5033110;28;20659;-50
2023/03/06 14:36:44;;;;;;;3.67;2.60;;;;;;;;;;5033143;28;20197;-51
2023/03/06 14:39:12;;;;;;;3.97;2.70;;;;;;;;;;5033406;28;20197;-50
2023/03/06 14:41:39;;;;;;;3.70;2.30;;;;;;;;;;5032685;28;20197;-51
2023/03/06 14:44:09;;;;;;;4.40;2.40;;;;;;;;;;5033019;28;20215;-50
2023/03/06 14:46:35;;;;;;;3.57;2.37;;;;;;;;;;5033147;28;20298;-51
2023/03/06 14:49:01;;;;;;;3.67;2.43;;;;;;;;;;5033134;28;20196;-51
2023/03/06 14:51:27;;;;;;;3.30;2.43;;;;;;;;;;5033006;28;20566;-51